createdAt,value
2023-05-22T00:01:51.800Z,13.73
2023-05-22T00:04:21.471Z,12.50
2023-05-22T00:06:49.080Z,12.97
2023-05-22T00:09:15.820Z,12.93
2023-05-22T00:11:42.932Z,13.07
2023-05-22T00:14:09.785Z,14.20
2023-05-22T00:16:36.536Z,13.10
2023-05-22T00:19:03.764Z,13.23
2023-05-22T00:21:34.662Z,14.47
2023-05-22T00:24:02.130Z,12.67
2023-05-22T00:26:28.845Z,12.37
2023-05-22T00:28:55.949Z,12.60
2023-05-22T00:31:23.502Z,13.37
2023-05-22T00:33:50.836Z,11.80
2023-05-22T00:36:18.763Z,15.03
2023-05-22T00:38:46.235Z,13.37
2023-05-22T00:41:13.336Z,12.07
2023-05-22T00:43:40.171Z,13.20
2023-05-22T00:46:10.004Z,13.50
2023-05-22T00:48:36.820Z,14.10
2023-05-22T00:51:04.138Z,13.30
2023-05-22T00:53:31.646Z,14.90
2023-05-22T00:55:59.815Z,13.03
2023-05-22T00:58:27.418Z,15.60
2023-05-22T01:00:55.541Z,13.50
2023-05-22T01:03:26.717Z,13.73
2023-05-22T01:05:54.869Z,14.10
2023-05-22T01:08:21.927Z,16.03
2023-05-22T01:10:54.647Z,12.10
2023-05-22T01:13:26.981Z,13.83
2023-05-22T01:16:08.918Z,14.43
2023-05-22T01:18:49.271Z,13.53
2023-05-22T01:21:22.333Z,13.57
2023-05-22T01:24:21.672Z,13.47
2023-05-22T01:27:16.221Z,12.33
2023-05-22T01:30:20.533Z,12.43
2023-05-22T01:32:49.655Z,11.87
2023-05-22T01:35:19.002Z,13.03
2023-05-22T01:37:46.750Z,12.60
2023-05-22T01:40:13.787Z,13.50
2023-05-22T01:42:41.310Z,12.47
2023-05-22T01:45:10.813Z,12.57
2023-05-22T01:47:38.232Z,12.97
2023-05-22T01:50:06.467Z,12.20
2023-05-22T01:52:52.492Z,15.37
2023-05-22T01:55:29.168Z,13.37
2023-05-22T01:58:21.438Z,14.37
2023-05-22T02:00:53.852Z,16.77
2023-05-22T02:03:26.477Z,14.60
2023-05-22T02:05:55.241Z,15.73
2023-05-22T02:08:22.837Z,17.40
2023-05-22T02:10:52.205Z,15.47
2023-05-22T02:13:21.548Z,14.67
2023-05-22T02:15:49.117Z,15.70
2023-05-22T02:18:16.316Z,17.47
2023-05-22T02:20:43.615Z,16.40
2023-05-22T02:23:10.772Z,17.27
2023-05-22T02:25:37.601Z,16.20
2023-05-22T02:28:04.389Z,15.37
2023-05-22T02:30:31.268Z,16.30
2023-05-22T02:33:00.080Z,16.03
2023-05-22T02:35:26.880Z,14.97
2023-05-22T02:37:53.594Z,14.73
2023-05-22T02:40:20.327Z,14.37
2023-05-22T02:42:47.131Z,13.67
2023-05-22T02:45:14.084Z,12.80
2023-05-22T02:47:41.726Z,13.53
2023-05-22T02:50:08.932Z,13.90
2023-05-22T02:52:36.981Z,15.00
2023-05-22T02:55:04.541Z,15.60
2023-05-22T02:57:31.941Z,15.13
2023-05-22T02:59:59.252Z,13.93
2023-05-22T03:02:28.369Z,14.50
2023-05-22T03:04:55.527Z,14.20
2023-05-22T03:07:22.224Z,13.33
2023-05-22T03:09:48.901Z,14.97
2023-05-22T03:12:15.879Z,14.40
2023-05-22T03:14:42.564Z,15.93
2023-05-22T03:17:09.207Z,16.77
2023-05-22T03:19:36.160Z,16.70
2023-05-22T03:22:03.113Z,17.53
2023-05-22T03:24:30.474Z,17.23
2023-05-22T03:26:57.325Z,17.03
2023-05-22T03:29:33.305Z,15.83
2023-05-22T03:32:00.043Z,16.00
2023-05-22T03:34:27.394Z,17.33
2023-05-22T03:36:54.562Z,16.03
2023-05-22T03:39:21.474Z,16.93
2023-05-22T03:42:08.411Z,16.67
2023-05-22T03:44:35.191Z,14.43
2023-05-22T03:47:01.951Z,16.67
2023-05-22T03:49:30.779Z,14.83
2023-05-22T03:51:57.482Z,17.07
2023-05-22T03:54:24.183Z,16.53
2023-05-22T03:56:51.128Z,17.17
2023-05-22T03:59:19.208Z,15.73
2023-05-22T04:01:46.649Z,13.97
2023-05-22T04:04:13.459Z,15.43
2023-05-22T04:06:43.158Z,15.57
2023-05-22T04:09:13.243Z,14.70
2023-05-22T04:11:40.129Z,14.87
2023-05-22T04:14:06.865Z,15.03
2023-05-22T04:16:34.091Z,15.00
2023-05-22T04:19:03.778Z,15.17
2023-05-22T04:21:34.015Z,14.47
2023-05-22T04:24:07.439Z,14.97
2023-05-22T04:26:34.382Z,16.30
2023-05-22T04:29:01.219Z,14.73
2023-05-22T04:31:28.449Z,16.60
2023-05-22T04:33:55.872Z,16.03
2023-05-22T04:36:25.895Z,16.33
2023-05-22T04:38:54.032Z,15.20
2023-05-22T04:41:26.527Z,15.90
2023-05-22T04:43:54.471Z,16.93
2023-05-22T04:46:21.268Z,15.47
2023-05-22T04:48:48.295Z,15.43
2023-05-22T04:51:15.845Z,15.40
2023-05-22T04:53:42.726Z,14.80
2023-05-22T04:56:09.714Z,14.90
2023-05-22T04:58:38.144Z,15.33
2023-05-22T05:01:06.226Z,14.93
2023-05-22T05:03:34.182Z,18.40
2023-05-22T05:06:00.954Z,15.60
2023-05-22T05:08:27.786Z,15.83
2023-05-22T05:10:54.600Z,16.77
2023-05-22T05:13:21.615Z,14.43
2023-05-22T05:15:48.366Z,15.47
2023-05-22T05:18:15.369Z,15.83
2023-05-22T05:20:42.722Z,15.47
2023-05-22T05:23:10.282Z,17.13
2023-05-22T05:25:38.601Z,14.37
2023-05-22T05:28:11.595Z,15.73
2023-05-22T05:30:40.578Z,15.13
2023-05-22T05:33:27.916Z,14.57
2023-05-22T05:36:07.096Z,14.77
2023-05-22T05:38:34.985Z,15.07
2023-05-22T05:41:02.220Z,14.30
2023-05-22T05:43:29.631Z,15.00
2023-05-22T05:46:02.279Z,14.50
2023-05-22T05:48:29.068Z,18.27
2023-05-22T05:50:56.374Z,17.70
2023-05-22T05:53:23.199Z,15.67
2023-05-22T05:55:55.648Z,14.43
2023-05-22T05:58:22.899Z,14.90
2023-05-22T06:01:27.072Z,14.73
2023-05-22T06:03:54.900Z,14.20
2023-05-22T06:06:29.756Z,14.40
2023-05-22T06:09:19.644Z,16.00
2023-05-22T06:12:12.884Z,15.10
2023-05-22T06:14:42.686Z,14.80
2023-05-22T06:17:09.924Z,15.00
2023-05-22T06:19:39.041Z,14.20
2023-05-22T06:22:06.380Z,15.83
2023-05-22T06:24:33.835Z,15.43
2023-05-22T06:27:06.372Z,13.17
2023-05-22T06:29:33.230Z,14.37
2023-05-22T06:32:01.177Z,14.20
2023-05-22T06:34:29.968Z,14.87
2023-05-22T06:36:58.690Z,15.13
2023-05-22T06:39:31.160Z,14.87
2023-05-22T06:42:12.496Z,15.37
2023-05-22T06:45:08.235Z,15.27
2023-05-22T06:47:45.486Z,14.83
2023-05-22T06:50:12.370Z,14.93
2023-05-22T06:52:39.058Z,15.67
2023-05-22T06:55:07.748Z,16.20
2023-05-22T06:57:45.844Z,15.57
2023-05-22T07:00:13.105Z,14.67
2023-05-22T07:03:02.143Z,15.70
2023-05-22T07:05:33.046Z,15.47
2023-05-22T07:08:01.571Z,16.30
2023-05-22T07:10:28.946Z,15.43
2023-05-22T07:12:57.698Z,16.23
2023-05-22T07:15:24.994Z,16.57
2023-05-22T07:17:54.094Z,13.87
2023-05-22T07:20:21.254Z,15.83
2023-05-22T07:23:00.757Z,18.40
2023-05-22T07:25:27.779Z,20.10
2023-05-22T07:27:55.688Z,18.13
2023-05-22T07:30:23.640Z,17.00
2023-05-22T07:32:50.340Z,15.43
2023-05-22T07:35:18.029Z,17.50
2023-05-22T07:37:44.799Z,16.13
2023-05-22T07:40:11.821Z,15.93
2023-05-22T07:42:38.906Z,15.82
2023-05-22T07:45:07.981Z,15.50
2023-05-22T07:47:34.761Z,15.70
2023-05-22T07:50:04.283Z,17.67
2023-05-22T07:52:32.847Z,15.80
2023-05-22T07:55:00.032Z,17.00
2023-05-22T07:57:29.617Z,16.58
2023-05-22T08:00:00.176Z,15.40
2023-05-22T08:02:26.985Z,15.63
2023-05-22T08:04:53.960Z,16.77
2023-05-22T08:07:20.736Z,17.40
2023-05-22T08:09:47.417Z,15.63
2023-05-22T08:12:14.106Z,14.70
2023-05-22T08:14:41.147Z,17.80
2023-05-22T08:17:07.982Z,16.13
2023-05-22T08:19:34.880Z,16.67
2023-05-22T08:22:01.732Z,14.65
2023-05-22T08:24:30.388Z,15.90
2023-05-22T08:27:00.985Z,16.50
2023-05-22T08:29:28.672Z,17.85
2023-05-22T08:31:56.894Z,17.27
2023-05-22T08:34:24.699Z,18.35
2023-05-22T08:36:51.573Z,18.42
2023-05-22T08:39:19.156Z,19.55
2023-05-22T08:41:47.388Z,20.75
2023-05-22T08:44:14.224Z,19.48
2023-05-22T08:46:45.303Z,16.38
2023-05-22T08:49:13.153Z,15.80
2023-05-22T08:51:44.938Z,16.70
2023-05-22T08:54:11.784Z,16.13
2023-05-22T08:56:45.607Z,16.58
2023-05-22T08:59:20.833Z,14.25
2023-05-22T09:01:48.143Z,18.80
2023-05-22T09:04:15.582Z,17.27
2023-05-22T09:06:43.001Z,16.52
2023-05-22T09:09:10.451Z,17.20
2023-05-22T09:11:37.298Z,16.67
2023-05-22T09:14:08.521Z,17.63
2023-05-22T09:16:46.300Z,15.60
2023-05-22T09:19:14.885Z,15.07
2023-05-22T09:21:42.588Z,16.20
2023-05-22T09:24:10.957Z,19.92
2023-05-22T09:26:41.255Z,16.25
2023-05-22T09:29:08.689Z,14.63
2023-05-22T09:31:41.909Z,16.13
2023-05-22T09:34:14.321Z,15.90
2023-05-22T09:36:42.390Z,16.48
2023-05-22T09:39:09.569Z,15.30
2023-05-22T09:41:38.748Z,15.25
2023-05-22T09:44:15.951Z,16.25
2023-05-22T09:46:46.360Z,17.05
2023-05-22T09:49:16.160Z,15.32
2023-05-22T09:51:47.538Z,14.60
2023-05-22T09:54:16.136Z,15.88
2023-05-22T09:56:44.247Z,15.32
2023-05-22T09:59:13.871Z,15.23
2023-05-22T10:01:42.562Z,16.63
2023-05-22T10:04:14.157Z,16.27
2023-05-22T10:06:42.928Z,16.38
2023-05-22T10:09:18.854Z,17.55
2023-05-22T10:11:47.378Z,16.00
2023-05-22T10:14:15.049Z,16.55
2023-05-22T10:16:44.938Z,18.92
2023-05-22T10:19:12.788Z,17.55
2023-05-22T10:21:41.755Z,18.08
2023-05-22T10:24:10.163Z,15.90
2023-05-22T10:26:38.641Z,16.15
2023-05-22T10:29:16.200Z,14.85
2023-05-22T10:31:52.909Z,13.73
2023-05-22T10:34:38.305Z,14.07
2023-05-22T10:37:18.058Z,13.80
2023-05-22T10:40:12.059Z,13.60
2023-05-22T10:42:39.245Z,13.52
2023-05-22T10:45:10.605Z,14.07
2023-05-22T10:47:37.737Z,14.07
2023-05-22T10:50:07.897Z,13.82
2023-05-22T10:52:36.039Z,13.60
2023-05-22T10:55:07.071Z,13.43
2023-05-22T10:57:34.656Z,13.65
2023-05-22T11:00:15.932Z,14.05
2023-05-22T11:02:45.932Z,12.85
2023-05-22T11:05:18.615Z,12.82
2023-05-22T11:07:45.397Z,12.73
2023-05-22T11:10:12.232Z,12.57
2023-05-22T11:12:38.939Z,13.43
2023-05-22T11:15:10.693Z,13.50
2023-05-22T11:17:51.323Z,12.73
2023-05-22T11:20:18.378Z,11.77
2023-05-22T11:23:00.435Z,13.75
2023-05-22T11:25:28.561Z,10.88
2023-05-22T11:27:56.165Z,10.10
2023-05-22T11:30:27.890Z,12.00
2023-05-22T11:32:54.748Z,11.70
2023-05-22T11:35:22.343Z,12.10
2023-05-22T11:37:50.810Z,10.50
2023-05-22T11:40:21.176Z,10.43
2023-05-22T11:42:48.164Z,10.77
2023-05-22T11:45:14.883Z,10.00
2023-05-22T11:47:43.679Z,9.13
2023-05-22T11:50:12.591Z,11.18
2023-05-22T11:52:41.893Z,11.57
2023-05-22T11:55:10.009Z,12.40
2023-05-22T11:57:38.201Z,13.32
2023-05-22T12:00:08.298Z,12.02
2023-05-22T12:02:50.248Z,11.88
2023-05-22T12:05:17.126Z,11.25
2023-05-22T12:07:44.237Z,10.95
2023-05-22T12:10:11.520Z,12.18
2023-05-22T12:12:38.880Z,11.05
2023-05-22T12:15:07.080Z,12.43
2023-05-22T12:17:37.481Z,13.13
2023-05-22T12:20:05.448Z,12.15
2023-05-22T12:22:32.223Z,12.88
2023-05-22T12:24:58.944Z,12.23
2023-05-22T12:27:32.945Z,12.85
2023-05-22T12:29:59.890Z,13.52
2023-05-22T12:32:29.653Z,12.07
2023-05-22T12:34:58.210Z,13.32
2023-05-22T12:37:28.361Z,13.48
2023-05-22T12:39:56.868Z,12.07
2023-05-22T12:42:27.606Z,11.50
2023-05-22T12:44:55.421Z,10.85
2023-05-22T12:47:23.637Z,12.55
2023-05-22T12:49:51.205Z,12.43
2023-05-22T12:52:17.996Z,13.25
2023-05-22T12:54:44.782Z,12.77
2023-05-22T12:57:11.592Z,11.48
2023-05-22T12:59:38.292Z,12.65
2023-05-22T13:02:05.537Z,10.57
2023-05-22T13:04:32.471Z,11.90
2023-05-22T13:06:59.318Z,11.35
2023-05-22T13:09:26.220Z,11.80
2023-05-22T13:11:53.042Z,10.25
2023-05-22T13:14:19.831Z,10.10
2023-05-22T13:16:46.791Z,9.50
2023-05-22T13:19:13.611Z,10.50
2023-05-22T13:21:40.304Z,10.10
2023-05-22T13:24:07.089Z,9.98
2023-05-22T13:26:33.797Z,10.45
2023-05-22T13:29:00.520Z,11.40
2023-05-22T13:31:27.236Z,10.77
2023-05-22T13:33:54.320Z,11.20
2023-05-22T13:36:21.206Z,13.40
2023-05-22T13:38:47.982Z,10.75
2023-05-22T13:41:15.528Z,11.20
2023-05-22T13:43:42.245Z,11.13
2023-05-22T13:46:08.997Z,9.75
2023-05-22T13:48:35.728Z,9.45
2023-05-22T13:51:03.054Z,8.85
2023-05-22T13:53:29.792Z,9.40
2023-05-22T13:55:56.486Z,8.73
2023-05-22T13:58:23.168Z,9.57
2023-05-22T14:00:50.005Z,8.82
2023-05-22T14:03:18.472Z,9.25
2023-05-22T14:05:45.539Z,9.07
2023-05-22T14:08:13.382Z,10.38
2023-05-22T14:10:40.405Z,10.60
2023-05-22T14:13:08.609Z,10.95
2023-05-22T14:15:35.671Z,9.98
2023-05-22T14:18:02.494Z,10.70
2023-05-22T14:20:29.259Z,11.88
2023-05-22T14:22:58.231Z,12.38
2023-05-22T14:25:28.319Z,10.57
2023-05-22T14:27:55.073Z,11.52
2023-05-22T14:30:21.862Z,10.93
2023-05-22T14:32:48.844Z,9.93
2023-05-22T14:35:16.679Z,10.45
2023-05-22T14:37:43.932Z,10.52
2023-05-22T14:40:10.885Z,10.77
2023-05-22T14:42:37.705Z,10.65
2023-05-22T14:45:04.818Z,10.80
2023-05-22T14:47:31.503Z,11.70
2023-05-22T14:50:06.773Z,11.38
2023-05-22T14:52:44.900Z,11.35
2023-05-22T14:55:11.588Z,11.23
2023-05-22T14:57:38.254Z,11.27
2023-05-22T15:00:12.364Z,11.35
2023-05-22T15:02:39.675Z,10.77
2023-05-22T15:05:07.214Z,11.43
2023-05-22T15:10:05.327Z,11.60
2023-05-22T15:12:32.419Z,11.00
2023-05-22T15:14:59.139Z,10.88
2023-05-22T15:17:26.007Z,11.30
2023-05-22T15:19:52.799Z,11.20
2023-05-22T15:22:20.226Z,10.18
2023-05-22T15:24:48.114Z,11.23
2023-05-22T15:27:14.836Z,13.85
2023-05-22T15:29:41.853Z,12.63
2023-05-22T15:32:09.066Z,13.20
2023-05-22T15:34:35.804Z,12.82
2023-05-22T15:37:02.463Z,13.25
2023-05-22T15:39:29.592Z,17.45
2023-05-22T15:42:05.855Z,14.90
2023-05-22T15:44:33.735Z,14.67
2023-05-22T15:47:00.564Z,13.37
2023-05-22T15:49:30.227Z,14.70
2023-05-22T15:51:58.609Z,13.40
2023-05-22T15:54:25.399Z,12.10
2023-05-22T15:56:52.090Z,12.20
2023-05-22T15:59:18.826Z,15.50
2023-05-22T16:01:45.750Z,14.93
2023-05-22T16:04:12.537Z,11.90
2023-05-22T16:06:39.288Z,13.53
2023-05-22T16:09:06.163Z,12.70
2023-05-22T16:11:33.555Z,13.53
2023-05-22T16:14:00.342Z,12.57
2023-05-22T16:16:27.248Z,12.20
2023-05-22T16:18:54.086Z,11.70
2023-05-22T16:21:20.886Z,11.20
2023-05-22T16:23:47.752Z,12.00
2023-05-22T16:26:14.912Z,12.33
2023-05-22T16:28:41.623Z,12.10
2023-05-22T16:31:19.325Z,13.20
2023-05-22T16:33:46.310Z,11.80
2023-05-22T16:36:13.175Z,11.10
2023-05-22T16:38:39.870Z,14.47
2023-05-22T16:41:06.628Z,13.40
2023-05-22T16:43:33.309Z,12.33
2023-05-22T16:46:00.131Z,12.93
2023-05-22T16:48:26.967Z,13.27
2023-05-22T16:50:53.713Z,13.13
2023-05-22T16:53:20.642Z,13.87
2023-05-22T16:55:47.377Z,12.67
2023-05-22T16:58:14.111Z,13.20
2023-05-22T17:00:41.376Z,12.25
2023-05-22T17:03:09.295Z,12.45
2023-05-22T17:05:37.780Z,11.75
2023-05-22T17:08:04.693Z,13.68
2023-05-22T17:10:31.345Z,10.60
2023-05-22T17:12:58.046Z,10.77
2023-05-22T17:15:24.742Z,12.55
2023-05-22T17:17:51.531Z,12.02
2023-05-22T17:20:18.909Z,11.73
2023-05-22T17:22:45.668Z,11.50
2023-05-22T17:25:13.266Z,11.30
2023-05-22T17:27:40.076Z,11.10
2023-05-22T17:30:07.919Z,11.43
2023-05-22T17:32:35.064Z,13.05
2023-05-22T17:35:02.241Z,11.73
2023-05-22T17:37:29.008Z,11.40
2023-05-22T17:39:55.704Z,11.20
2023-05-22T17:42:22.807Z,11.60
2023-05-22T17:44:49.579Z,13.50
2023-05-22T17:47:16.295Z,10.03
2023-05-22T17:49:42.982Z,10.30
2023-05-22T17:52:10.090Z,10.97
2023-05-22T17:54:36.795Z,11.93
2023-05-22T17:57:04.117Z,10.60
2023-05-22T17:59:32.620Z,11.00
2023-05-22T18:01:59.476Z,10.63
2023-05-22T18:04:26.331Z,11.00
2023-05-22T18:06:53.074Z,11.57
2023-05-22T18:09:19.843Z,10.33
2023-05-22T18:11:46.539Z,10.67
2023-05-22T18:14:13.268Z,11.50
2023-05-22T18:16:39.982Z,11.63
2023-05-22T18:19:06.824Z,11.00
2023-05-22T18:21:33.580Z,11.70
2023-05-22T18:24:00.382Z,11.57
2023-05-22T18:26:27.112Z,11.50
2023-05-22T18:28:53.892Z,12.73
2023-05-22T18:31:20.672Z,12.70
2023-05-22T18:33:47.729Z,12.67
2023-05-22T18:36:14.589Z,17.10
2023-05-22T18:38:41.548Z,12.57
2023-05-22T18:41:08.309Z,11.80
2023-05-22T18:43:35.139Z,12.33
2023-05-22T18:46:01.856Z,12.23
2023-05-22T18:48:29.862Z,12.33
2023-05-22T18:50:57.721Z,11.57
2023-05-22T18:53:25.359Z,14.40
2023-05-22T18:55:53.716Z,12.80
2023-05-22T18:58:20.532Z,12.60
2023-05-22T19:00:47.258Z,12.40
2023-05-22T19:03:14.280Z,14.73
2023-05-22T19:05:41.127Z,13.70
2023-05-22T19:08:07.962Z,14.90
2023-05-22T19:10:34.697Z,12.17
2023-05-22T19:13:01.414Z,11.70
2023-05-22T19:15:28.196Z,11.20
2023-05-22T19:17:54.966Z,12.30
2023-05-22T19:20:22.862Z,12.63
2023-05-22T19:22:50.950Z,12.53
2023-05-22T19:25:18.293Z,12.93
2023-05-22T19:27:45.822Z,12.27
2023-05-22T19:30:15.076Z,14.40
2023-05-22T19:32:45.233Z,12.20
2023-05-22T19:35:12.120Z,11.57
2023-05-22T19:37:38.880Z,12.43
2023-05-22T19:40:07.012Z,12.50
2023-05-22T19:42:34.318Z,11.50
2023-05-22T19:45:02.580Z,13.60
2023-05-22T19:47:29.376Z,12.80
2023-05-22T19:49:56.151Z,12.50
2023-05-22T19:52:23.033Z,11.57
2023-05-22T19:54:49.698Z,14.00
2023-05-22T19:57:16.343Z,14.63
2023-05-22T19:59:43.044Z,12.43
2023-05-22T20:02:09.762Z,13.93
2023-05-22T20:04:39.410Z,12.27
2023-05-22T20:07:12.165Z,11.87
2023-05-22T20:09:39.042Z,13.27
2023-05-22T20:12:07.020Z,12.80
2023-05-22T20:14:33.994Z,12.70
2023-05-22T20:17:02.661Z,12.53
2023-05-22T20:19:29.906Z,14.07
2023-05-22T20:21:58.196Z,16.03
2023-05-22T20:24:27.483Z,13.87
2023-05-22T20:26:54.181Z,14.23
2023-05-22T20:29:20.867Z,12.40
2023-05-22T20:31:47.714Z,13.10
2023-05-22T20:34:14.452Z,12.77
2023-05-22T20:36:42.599Z,14.27
2023-05-22T20:39:10.775Z,18.03
2023-05-22T20:41:38.410Z,19.67
2023-05-22T20:44:05.178Z,20.43
2023-05-22T20:46:34.584Z,20.87
2023-05-22T20:49:02.840Z,21.87
2023-05-22T20:51:32.436Z,23.37
2023-05-22T20:53:59.867Z,25.60
2023-05-22T20:56:27.015Z,27.77
2023-05-22T20:58:54.717Z,29.07
2023-05-22T21:01:22.051Z,27.00
2023-05-22T21:03:51.347Z,29.70
2023-05-22T21:06:18.813Z,30.57
2023-05-22T21:08:45.473Z,28.67
2023-05-22T21:11:12.235Z,29.43
2023-05-22T21:13:38.979Z,28.70
2023-05-22T21:16:06.058Z,30.83
2023-05-22T21:18:32.727Z,31.80
2023-05-22T21:20:59.629Z,28.20
2023-05-22T21:23:26.656Z,28.00
2023-05-22T21:25:53.608Z,30.67
2023-05-22T21:28:20.500Z,31.13
2023-05-22T21:30:47.430Z,28.80
2023-05-22T21:33:14.292Z,32.40
2023-05-22T21:35:40.946Z,32.60
2023-05-22T21:38:07.644Z,29.20
2023-05-22T21:40:34.367Z,27.63
2023-05-22T21:43:01.064Z,29.50
2023-05-22T21:45:27.725Z,29.27
2023-05-22T21:47:54.471Z,28.57
2023-05-22T21:50:21.304Z,31.97
2023-05-22T21:52:48.047Z,29.50
2023-05-22T21:55:14.824Z,27.43
2023-05-22T21:57:41.442Z,29.97
2023-05-22T22:00:08.802Z,30.03
2023-05-22T22:02:35.491Z,32.70
2023-05-22T22:05:02.189Z,29.07
2023-05-22T22:07:28.874Z,30.73
2023-05-22T22:09:55.605Z,31.47
2023-05-22T22:12:22.257Z,34.70
2023-05-22T22:14:48.965Z,32.63
2023-05-22T22:17:16.797Z,33.23
2023-05-22T22:19:44.446Z,34.23
2023-05-22T22:22:12.481Z,29.83
2023-05-22T22:24:39.223Z,30.47
2023-05-22T22:27:06.313Z,28.67
2023-05-22T22:29:33.120Z,33.10
2023-05-22T22:31:59.790Z,32.17
2023-05-22T22:34:26.512Z,32.43
2023-05-22T22:36:53.825Z,36.27
2023-05-22T22:39:20.481Z,32.83
2023-05-22T22:41:47.138Z,36.10
2023-05-22T22:44:13.793Z,37.67
2023-05-22T22:46:40.588Z,33.60
2023-05-22T22:49:08.675Z,35.97
2023-05-22T22:51:35.487Z,35.53
2023-05-22T22:54:02.253Z,35.87
2023-05-22T22:56:29.466Z,34.33
2023-05-22T22:58:57.130Z,33.57
2023-05-22T23:01:24.106Z,34.67
2023-05-22T23:03:51.508Z,36.57
2023-05-22T23:06:18.428Z,34.60
2023-05-22T23:08:45.681Z,37.40
2023-05-22T23:11:12.501Z,36.13
2023-05-22T23:13:41.059Z,41.07
2023-05-22T23:16:08.091Z,36.40
2023-05-22T23:18:35.323Z,36.27
2023-05-22T23:21:02.017Z,33.97
2023-05-22T23:23:28.779Z,34.80
2023-05-22T23:25:57.995Z,40.43
2023-05-22T23:28:25.727Z,37.27
2023-05-22T23:30:52.888Z,34.17
2023-05-22T23:33:19.763Z,42.20
2023-05-22T23:35:46.609Z,35.20
2023-05-22T23:38:13.287Z,33.23
2023-05-22T23:40:39.971Z,35.93
2023-05-22T23:43:06.658Z,32.97
2023-05-22T23:45:33.294Z,35.83
2023-05-22T23:47:59.987Z,35.30
2023-05-22T23:50:26.751Z,36.87
2023-05-22T23:52:54.007Z,34.87
2023-05-22T23:55:20.842Z,38.93
2023-05-22T23:57:47.528Z,36.53
